sensor_id;sensor_type;location;lat;lon;timestamp;P1;durP1;ratioP1;P2;durP2;ratioP2
74648;SDS011;63168;49.280;7.214;2023-01-13T00:01:42;1.13;;;0.43;;
74648;SDS011;63168;49.280;7.214;2023-01-13T00:04:08;0.73;;;0.50;;
74648;SDS011;63168;49.280;7.214;2023-01-13T00:06:34;1.13;;;0.52;;
74648;SDS011;63168;49.280;7.214;2023-01-13T00:08:59;1.13;;;0.60;;
74648;SDS011;63168;49.280;7.214;2023-01-13T00:11:24;1.03;;;0.50;;
74648;SDS011;63168;49.280;7.214;2023-01-13T00:13:50;0.68;;;0.40;;
74648;SDS011;63168;49.280;7.214;2023-01-13T00:16:16;1.17;;;0.50;;
74648;SDS011;63168;49.280;7.214;2023-01-13T00:18:44;1.45;;;0.43;;
74648;SDS011;63168;49.280;7.214;2023-01-13T00:21:11;0.80;;;0.40;;
74648;SDS011;63168;49.280;7.214;2023-01-13T00:23:38;0.60;;;0.40;;
74648;SDS011;63168;49.280;7.214;2023-01-13T00:26:05;0.82;;;0.47;;
74648;SDS011;63168;49.280;7.214;2023-01-13T00:28:31;1.00;;;0.50;;
74648;SDS011;63168;49.280;7.214;2023-01-13T00:31:03;0.90;;;0.50;;
74648;SDS011;63168;49.280;7.214;2023-01-13T00:33:29;1.10;;;0.45;;
74648;SDS011;63168;49.280;7.214;2023-01-13T00:35:56;1.10;;;0.60;;
74648;SDS011;63168;49.280;7.214;2023-01-13T00:38:23;0.88;;;0.47;;
74648;SDS011;63168;49.280;7.214;2023-01-13T00:40:55;0.67;;;0.40;;
74648;SDS011;63168;49.280;7.214;2023-01-13T00:43:21;0.70;;;0.47;;
74648;SDS011;63168;49.280;7.214;2023-01-13T00:45:46;1.17;;;0.50;;
74648;SDS011;63168;49.280;7.214;2023-01-13T00:48:15;1.13;;;0.50;;
74648;SDS011;63168;49.280;7.214;2023-01-13T00:50:40;1.13;;;0.50;;
74648;SDS011;63168;49.280;7.214;2023-01-13T00:53:07;0.97;;;0.50;;
74648;SDS011;63168;49.280;7.214;2023-01-13T00:55:32;1.67;;;0.70;;
74648;SDS011;63168;49.280;7.214;2023-01-13T00:57:58;1.10;;;0.40;;
74648;SDS011;63168;49.280;7.214;2023-01-13T01:00:27;0.65;;;0.50;;
74648;SDS011;63168;49.280;7.214;2023-01-13T01:02:52;1.20;;;0.50;;
74648;SDS011;63168;49.280;7.214;2023-01-13T01:05:18;0.63;;;0.40;;
74648;SDS011;63168;49.280;7.214;2023-01-13T01:07:43;1.15;;;0.50;;
74648;SDS011;63168;49.280;7.214;2023-01-13T01:10:10;1.33;;;0.50;;
74648;SDS011;63168;49.280;7.214;2023-01-13T01:12:36;0.70;;;0.43;;
74648;SDS011;63168;49.280;7.214;2023-01-13T01:15:01;0.77;;;0.43;;
74648;SDS011;63168;49.280;7.214;2023-01-13T01:17:27;0.90;;;0.40;;
74648;SDS011;63168;49.280;7.214;2023-01-13T01:19:52;1.40;;;0.47;;
74648;SDS011;63168;49.280;7.214;2023-01-13T01:22:18;0.80;;;0.40;;
74648;SDS011;63168;49.280;7.214;2023-01-13T01:24:43;0.93;;;0.50;;
74648;SDS011;63168;49.280;7.214;2023-01-13T01:27:10;1.43;;;0.50;;
74648;SDS011;63168;49.280;7.214;2023-01-13T01:29:35;0.95;;;0.40;;
74648;SDS011;63168;49.280;7.214;2023-01-13T01:32:00;1.13;;;0.50;;
74648;SDS011;63168;49.280;7.214;2023-01-13T01:34:26;0.80;;;0.50;;
74648;SDS011;63168;49.280;7.214;2023-01-13T01:36:51;0.60;;;0.50;;
74648;SDS011;63168;49.280;7.214;2023-01-13T01:39:17;0.50;;;0.40;;
74648;SDS011;63168;49.280;7.214;2023-01-13T01:41:42;0.67;;;0.40;;
74648;SDS011;63168;49.280;7.214;2023-01-13T01:47:20;1.20;;;0.50;;
74648;SDS011;63168;49.280;7.214;2023-01-13T01:49:46;1.17;;;0.50;;
74648;SDS011;63168;49.280;7.214;2023-01-13T01:52:13;0.50;;;0.30;;
74648;SDS011;63168;49.280;7.214;2023-01-13T01:54:45;1.00;;;0.50;;
74648;SDS011;63168;49.280;7.214;2023-01-13T01:57:17;0.73;;;0.43;;
74648;SDS011;63168;49.280;7.214;2023-01-13T01:59:47;0.88;;;0.40;;
74648;SDS011;63168;49.280;7.214;2023-01-13T02:02:14;0.80;;;0.50;;
74648;SDS011;63168;49.280;7.214;2023-01-13T02:04:42;0.80;;;0.55;;
74648;SDS011;63168;49.280;7.214;2023-01-13T02:07:15;0.57;;;0.40;;
74648;SDS011;63168;49.280;7.214;2023-01-13T02:09:41;1.13;;;0.50;;
74648;SDS011;63168;49.280;7.214;2023-01-13T02:12:07;1.00;;;0.50;;
74648;SDS011;63168;49.280;7.214;2023-01-13T02:14:51;0.95;;;0.50;;
74648;SDS011;63168;49.280;7.214;2023-01-13T02:17:22;0.70;;;0.40;;
74648;SDS011;63168;49.280;7.214;2023-01-13T02:20:04;0.47;;;0.30;;
74648;SDS011;63168;49.280;7.214;2023-01-13T02:26:04;0.60;;;0.40;;
74648;SDS011;63168;49.280;7.214;2023-01-13T02:28:52;1.00;;;0.50;;
74648;SDS011;63168;49.280;7.214;2023-01-13T02:31:51;0.80;;;0.43;;
74648;SDS011;63168;49.280;7.214;2023-01-13T02:34:23;0.50;;;0.40;;
74648;SDS011;63168;49.280;7.214;2023-01-13T02:36:55;0.98;;;0.40;;
74648;SDS011;63168;49.280;7.214;2023-01-13T02:39:26;0.95;;;0.45;;
74648;SDS011;63168;49.280;7.214;2023-01-13T02:41:59;0.75;;;0.70;;
74648;SDS011;63168;49.280;7.214;2023-01-13T02:44:50;0.60;;;0.40;;
74648;SDS011;63168;49.280;7.214;2023-01-13T02:47:21;0.57;;;0.40;;
74648;SDS011;63168;49.280;7.214;2023-01-13T02:49:51;1.10;;;0.45;;
74648;SDS011;63168;49.280;7.214;2023-01-13T02:52:21;0.65;;;0.40;;
74648;SDS011;63168;49.280;7.214;2023-01-13T02:54:51;0.70;;;0.40;;
74648;SDS011;63168;49.280;7.214;2023-01-13T02:57:21;1.20;;;0.52;;
74648;SDS011;63168;49.280;7.214;2023-01-13T02:59:49;1.23;;;0.40;;
74648;SDS011;63168;49.280;7.214;2023-01-13T03:02:18;0.43;;;0.40;;
74648;SDS011;63168;49.280;7.214;2023-01-13T03:04:50;0.57;;;0.40;;
74648;SDS011;63168;49.280;7.214;2023-01-13T03:07:31;1.13;;;0.55;;
74648;SDS011;63168;49.280;7.214;2023-01-13T03:10:09;0.40;;;0.30;;
74648;SDS011;63168;49.280;7.214;2023-01-13T03:12:45;0.60;;;0.43;;
74648;SDS011;63168;49.280;7.214;2023-01-13T03:15:20;1.15;;;0.40;;
74648;SDS011;63168;49.280;7.214;2023-01-13T03:17:54;0.57;;;0.30;;
74648;SDS011;63168;49.280;7.214;2023-01-13T03:20:28;0.47;;;0.38;;
74648;SDS011;63168;49.280;7.214;2023-01-13T03:22:59;0.90;;;0.40;;
74648;SDS011;63168;49.280;7.214;2023-01-13T03:25:32;1.25;;;0.50;;
74648;SDS011;63168;49.280;7.214;2023-01-13T03:28:01;1.10;;;0.40;;
74648;SDS011;63168;49.280;7.214;2023-01-13T03:30:30;0.88;;;0.40;;
74648;SDS011;63168;49.280;7.214;2023-01-13T03:33:01;1.13;;;0.60;;
74648;SDS011;63168;49.280;7.214;2023-01-13T03:35:33;0.57;;;0.47;;
74648;SDS011;63168;49.280;7.214;2023-01-13T03:38:04;1.03;;;0.40;;
74648;SDS011;63168;49.280;7.214;2023-01-13T03:40:34;0.82;;;0.60;;
74648;SDS011;63168;49.280;7.214;2023-01-13T03:43:05;0.60;;;0.35;;
74648;SDS011;63168;49.280;7.214;2023-01-13T03:45:54;0.65;;;0.40;;
74648;SDS011;63168;49.280;7.214;2023-01-13T03:48:23;1.13;;;0.52;;
74648;SDS011;63168;49.280;7.214;2023-01-13T03:50:54;0.40;;;0.30;;
74648;SDS011;63168;49.280;7.214;2023-01-13T03:53:25;0.90;;;0.40;;
74648;SDS011;63168;49.280;7.214;2023-01-13T03:55:54;0.68;;;0.30;;
74648;SDS011;63168;49.280;7.214;2023-01-13T03:58:24;0.30;;;0.30;;
74648;SDS011;63168;49.280;7.214;2023-01-13T04:00:54;1.00;;;0.43;;
74648;SDS011;63168;49.280;7.214;2023-01-13T04:03:22;0.88;;;0.40;;
74648;SDS011;63168;49.280;7.214;2023-01-13T04:05:54;0.80;;;0.50;;
74648;SDS011;63168;49.280;7.214;2023-01-13T04:08:24;0.68;;;0.43;;
74648;SDS011;63168;49.280;7.214;2023-01-13T04:10:52;0.40;;;0.32;;
74648;SDS011;63168;49.280;7.214;2023-01-13T04:13:22;0.45;;;0.30;;
74648;SDS011;63168;49.280;7.214;2023-01-13T04:15:52;1.10;;;0.50;;
74648;SDS011;63168;49.280;7.214;2023-01-13T04:18:19;0.43;;;0.30;;
74648;SDS011;63168;49.280;7.214;2023-01-13T04:20:48;0.68;;;0.50;;
74648;SDS011;63168;49.280;7.214;2023-01-13T04:23:16;0.60;;;0.30;;
74648;SDS011;63168;49.280;7.214;2023-01-13T04:25:42;0.73;;;0.37;;
74648;SDS011;63168;49.280;7.214;2023-01-13T04:28:08;0.57;;;0.30;;
74648;SDS011;63168;49.280;7.214;2023-01-13T04:30:34;0.93;;;0.50;;
74648;SDS011;63168;49.280;7.214;2023-01-13T04:33:00;1.05;;;0.40;;
74648;SDS011;63168;49.280;7.214;2023-01-13T04:35:25;0.70;;;0.40;;
74648;SDS011;63168;49.280;7.214;2023-01-13T04:37:51;0.70;;;0.40;;
74648;SDS011;63168;49.280;7.214;2023-01-13T04:40:18;0.57;;;0.40;;
74648;SDS011;63168;49.280;7.214;2023-01-13T04:42:43;0.35;;;0.30;;
74648;SDS011;63168;49.280;7.214;2023-01-13T04:45:09;0.33;;;0.30;;
74648;SDS011;63168;49.280;7.214;2023-01-13T04:47:35;0.37;;;0.30;;
74648;SDS011;63168;49.280;7.214;2023-01-13T04:50:01;1.40;;;0.47;;
74648;SDS011;63168;49.280;7.214;2023-01-13T04:52:27;0.90;;;0.40;;
74648;SDS011;63168;49.280;7.214;2023-01-13T04:54:52;0.30;;;0.28;;
74648;SDS011;63168;49.280;7.214;2023-01-13T04:57:19;1.00;;;0.47;;
74648;SDS011;63168;49.280;7.214;2023-01-13T04:59:44;0.57;;;0.40;;
74648;SDS011;63168;49.280;7.214;2023-01-13T05:02:10;0.60;;;0.30;;
74648;SDS011;63168;49.280;7.214;2023-01-13T05:04:43;0.55;;;0.40;;
74648;SDS011;63168;49.280;7.214;2023-01-13T05:07:09;0.90;;;0.40;;
74648;SDS011;63168;49.280;7.214;2023-01-13T05:09:34;0.82;;;0.50;;
74648;SDS011;63168;49.280;7.214;2023-01-13T05:12:00;1.45;;;0.52;;
74648;SDS011;63168;49.280;7.214;2023-01-13T05:14:46;0.70;;;0.30;;
74648;SDS011;63168;49.280;7.214;2023-01-13T05:17:29;0.63;;;0.40;;
74648;SDS011;63168;49.280;7.214;2023-01-13T05:19:56;0.98;;;0.50;;
74648;SDS011;63168;49.280;7.214;2023-01-13T05:22:21;0.70;;;0.40;;
74648;SDS011;63168;49.280;7.214;2023-01-13T05:25:07;25.48;;;7.10;;
74648;SDS011;63168;49.280;7.214;2023-01-13T05:27:52;13.80;;;4.13;;
74648;SDS011;63168;49.280;7.214;2023-01-13T05:30:20;11.32;;;3.03;;
74648;SDS011;63168;49.280;7.214;2023-01-13T05:32:47;8.23;;;2.45;;
74648;SDS011;63168;49.280;7.214;2023-01-13T05:35:12;11.57;;;2.67;;
74648;SDS011;63168;49.280;7.214;2023-01-13T05:37:40;8.38;;;2.40;;
74648;SDS011;63168;49.280;7.214;2023-01-13T05:40:06;11.50;;;2.67;;
74648;SDS011;63168;49.280;7.214;2023-01-13T05:43:06;11.05;;;2.65;;
74648;SDS011;63168;49.280;7.214;2023-01-13T05:45:50;12.63;;;3.42;;
74648;SDS011;63168;49.280;7.214;2023-01-13T05:48:18;9.95;;;2.67;;
74648;SDS011;63168;49.280;7.214;2023-01-13T05:50:44;10.13;;;3.03;;
74648;SDS011;63168;49.280;7.214;2023-01-13T05:53:10;10.45;;;3.03;;
74648;SDS011;63168;49.280;7.214;2023-01-13T05:55:37;9.57;;;2.60;;
74648;SDS011;63168;49.280;7.214;2023-01-13T05:58:03;9.47;;;3.13;;
74648;SDS011;63168;49.280;7.214;2023-01-13T06:00:28;10.60;;;2.90;;
74648;SDS011;63168;49.280;7.214;2023-01-13T06:02:55;8.67;;;2.60;;
74648;SDS011;63168;49.280;7.214;2023-01-13T06:05:21;10.60;;;2.70;;
74648;SDS011;63168;49.280;7.214;2023-01-13T06:07:46;9.13;;;2.53;;
74648;SDS011;63168;49.280;7.214;2023-01-13T06:10:11;8.27;;;2.50;;
74648;SDS011;63168;49.280;7.214;2023-01-13T06:12:37;7.50;;;2.58;;
74648;SDS011;63168;49.280;7.214;2023-01-13T06:15:02;9.37;;;2.70;;
74648;SDS011;63168;49.280;7.214;2023-01-13T06:17:28;8.35;;;2.50;;
74648;SDS011;63168;49.280;7.214;2023-01-13T06:19:55;8.90;;;2.50;;
74648;SDS011;63168;49.280;7.214;2023-01-13T06:22:22;7.28;;;2.10;;
74648;SDS011;63168;49.280;7.214;2023-01-13T06:24:50;7.47;;;2.40;;
74648;SDS011;63168;49.280;7.214;2023-01-13T06:27:17;8.63;;;2.33;;
74648;SDS011;63168;49.280;7.214;2023-01-13T06:29:44;7.25;;;2.50;;
74648;SDS011;63168;49.280;7.214;2023-01-13T06:32:11;9.65;;;2.35;;
74648;SDS011;63168;49.280;7.214;2023-01-13T06:34:40;5.60;;;2.20;;
74648;SDS011;63168;49.280;7.214;2023-01-13T06:37:11;7.15;;;2.10;;
74648;SDS011;63168;49.280;7.214;2023-01-13T06:39:40;6.60;;;2.25;;
74648;SDS011;63168;49.280;7.214;2023-01-13T06:42:06;7.80;;;2.53;;
74648;SDS011;63168;49.280;7.214;2023-01-13T06:44:50;7.15;;;2.30;;
74648;SDS011;63168;49.280;7.214;2023-01-13T06:47:15;8.73;;;2.88;;
74648;SDS011;63168;49.280;7.214;2023-01-13T06:49:41;6.60;;;2.43;;
74648;SDS011;63168;49.280;7.214;2023-01-13T06:52:06;6.60;;;2.50;;
74648;SDS011;63168;49.280;7.214;2023-01-13T06:54:33;6.20;;;2.33;;
74648;SDS011;63168;49.280;7.214;2023-01-13T06:56:58;6.82;;;2.08;;
74648;SDS011;63168;49.280;7.214;2023-01-13T06:59:24;6.05;;;2.20;;
74648;SDS011;63168;49.280;7.214;2023-01-13T07:01:49;8.33;;;2.30;;
74648;SDS011;63168;49.280;7.214;2023-01-13T07:04:15;8.00;;;2.50;;
74648;SDS011;63168;49.280;7.214;2023-01-13T07:06:40;6.43;;;2.53;;
74648;SDS011;63168;49.280;7.214;2023-01-13T07:09:05;7.90;;;2.33;;
74648;SDS011;63168;49.280;7.214;2023-01-13T07:11:32;5.73;;;2.10;;
74648;SDS011;63168;49.280;7.214;2023-01-13T07:13:59;7.40;;;2.17;;
74648;SDS011;63168;49.280;7.214;2023-01-13T07:16:43;8.18;;;2.10;;
74648;SDS011;63168;49.280;7.214;2023-01-13T07:19:08;6.67;;;1.90;;
74648;SDS011;63168;49.280;7.214;2023-01-13T07:21:34;6.60;;;2.13;;
74648;SDS011;63168;49.280;7.214;2023-01-13T07:23:59;8.17;;;2.50;;
74648;SDS011;63168;49.280;7.214;2023-01-13T07:26:25;6.47;;;2.17;;
74648;SDS011;63168;49.280;7.214;2023-01-13T07:28:51;6.63;;;1.70;;
74648;SDS011;63168;49.280;7.214;2023-01-13T07:31:18;6.75;;;2.13;;
74648;SDS011;63168;49.280;7.214;2023-01-13T07:33:45;5.38;;;1.83;;
74648;SDS011;63168;49.280;7.214;2023-01-13T07:36:11;5.85;;;1.90;;
74648;SDS011;63168;49.280;7.214;2023-01-13T07:38:36;5.17;;;1.87;;
74648;SDS011;63168;49.280;7.214;2023-01-13T07:41:04;4.07;;;1.88;;
74648;SDS011;63168;49.280;7.214;2023-01-13T07:43:49;8.45;;;2.10;;
74648;SDS011;63168;49.280;7.214;2023-01-13T07:46:17;6.10;;;2.13;;
74648;SDS011;63168;49.280;7.214;2023-01-13T07:48:43;5.53;;;1.88;;
74648;SDS011;63168;49.280;7.214;2023-01-13T07:51:10;7.63;;;2.20;;
74648;SDS011;63168;49.280;7.214;2023-01-13T07:53:37;5.55;;;1.98;;
74648;SDS011;63168;49.280;7.214;2023-01-13T07:56:04;7.03;;;2.15;;
74648;SDS011;63168;49.280;7.214;2023-01-13T07:58:31;5.95;;;2.10;;
74648;SDS011;63168;49.280;7.214;2023-01-13T08:00:57;5.47;;;1.83;;
74648;SDS011;63168;49.280;7.214;2023-01-13T08:03:23;4.90;;;1.70;;
74648;SDS011;63168;49.280;7.214;2023-01-13T08:05:50;6.00;;;1.90;;
74648;SDS011;63168;49.280;7.214;2023-01-13T08:08:15;4.57;;;1.90;;
74648;SDS011;63168;49.280;7.214;2023-01-13T08:10:41;5.47;;;2.00;;
74648;SDS011;63168;49.280;7.214;2023-01-13T08:13:09;7.75;;;2.40;;
74648;SDS011;63168;49.280;7.214;2023-01-13T08:15:41;5.73;;;2.00;;
74648;SDS011;63168;49.280;7.214;2023-01-13T08:18:07;5.00;;;1.70;;
74648;SDS011;63168;49.280;7.214;2023-01-13T08:20:34;5.03;;;1.77;;
74648;SDS011;63168;49.280;7.214;2023-01-13T08:22:59;5.43;;;1.60;;
74648;SDS011;63168;49.280;7.214;2023-01-13T08:25:27;5.28;;;1.98;;
74648;SDS011;63168;49.280;7.214;2023-01-13T08:27:53;5.47;;;1.80;;
74648;SDS011;63168;49.280;7.214;2023-01-13T08:30:19;3.90;;;1.50;;
74648;SDS011;63168;49.280;7.214;2023-01-13T08:32:45;5.63;;;1.83;;
74648;SDS011;63168;49.280;7.214;2023-01-13T08:35:12;5.87;;;1.87;;
74648;SDS011;63168;49.280;7.214;2023-01-13T08:37:39;4.33;;;1.57;;
74648;SDS011;63168;49.280;7.214;2023-01-13T08:40:05;4.22;;;1.70;;
74648;SDS011;63168;49.280;7.214;2023-01-13T08:42:31;5.40;;;1.55;;
74648;SDS011;63168;49.280;7.214;2023-01-13T08:44:57;4.00;;;1.53;;
74648;SDS011;63168;49.280;7.214;2023-01-13T08:47:22;4.13;;;1.30;;
74648;SDS011;63168;49.280;7.214;2023-01-13T08:49:48;4.78;;;1.45;;
74648;SDS011;63168;49.280;7.214;2023-01-13T08:52:14;2.77;;;1.33;;
74648;SDS011;63168;49.280;7.214;2023-01-13T08:54:41;3.88;;;1.50;;
74648;SDS011;63168;49.280;7.214;2023-01-13T08:57:06;5.10;;;1.80;;
74648;SDS011;63168;49.280;7.214;2023-01-13T08:59:32;4.13;;;1.70;;
74648;SDS011;63168;49.280;7.214;2023-01-13T09:01:57;4.75;;;1.45;;
74648;SDS011;63168;49.280;7.214;2023-01-13T09:04:24;4.37;;;1.53;;
74648;SDS011;63168;49.280;7.214;2023-01-13T09:06:52;4.53;;;1.50;;
74648;SDS011;63168;49.280;7.214;2023-01-13T09:09:17;4.00;;;1.33;;
74648;SDS011;63168;49.280;7.214;2023-01-13T09:11:45;4.05;;;1.60;;
74648;SDS011;63168;49.280;7.214;2023-01-13T09:14:32;4.90;;;1.40;;
74648;SDS011;63168;49.280;7.214;2023-01-13T09:16:59;4.30;;;1.50;;
74648;SDS011;63168;49.280;7.214;2023-01-13T09:19:24;4.53;;;1.77;;
74648;SDS011;63168;49.280;7.214;2023-01-13T09:21:50;6.67;;;2.10;;
74648;SDS011;63168;49.280;7.214;2023-01-13T09:24:16;4.90;;;1.67;;
74648;SDS011;63168;49.280;7.214;2023-01-13T09:26:42;3.87;;;1.40;;
74648;SDS011;63168;49.280;7.214;2023-01-13T09:29:09;4.37;;;1.50;;
74648;SDS011;63168;49.280;7.214;2023-01-13T09:31:34;4.43;;;1.40;;
74648;SDS011;63168;49.280;7.214;2023-01-13T09:33:59;5.43;;;1.57;;
74648;SDS011;63168;49.280;7.214;2023-01-13T09:36:44;4.90;;;1.60;;
74648;SDS011;63168;49.280;7.214;2023-01-13T09:39:09;4.80;;;1.65;;
74648;SDS011;63168;49.280;7.214;2023-01-13T09:41:35;4.10;;;1.50;;
74648;SDS011;63168;49.280;7.214;2023-01-13T09:44:28;4.05;;;1.48;;
74648;SDS011;63168;49.280;7.214;2023-01-13T09:47:05;4.87;;;1.57;;
74648;SDS011;63168;49.280;7.214;2023-01-13T09:49:36;5.60;;;1.58;;
74648;SDS011;63168;49.280;7.214;2023-01-13T09:52:05;3.95;;;1.63;;
74648;SDS011;63168;49.280;7.214;2023-01-13T09:54:39;5.17;;;1.33;;
74648;SDS011;63168;49.280;7.214;2023-01-13T09:57:07;4.70;;;1.42;;
74648;SDS011;63168;49.280;7.214;2023-01-13T09:59:36;6.47;;;1.53;;
74648;SDS011;63168;49.280;7.214;2023-01-13T10:02:03;4.37;;;1.47;;
74648;SDS011;63168;49.280;7.214;2023-01-13T10:04:41;3.30;;;1.25;;
74648;SDS011;63168;49.280;7.214;2023-01-13T10:07:09;4.23;;;1.30;;
74648;SDS011;63168;49.280;7.214;2023-01-13T10:09:41;3.97;;;1.37;;
74648;SDS011;63168;49.280;7.214;2023-01-13T10:12:13;4.57;;;1.52;;
74648;SDS011;63168;49.280;7.214;2023-01-13T10:15:04;5.03;;;1.48;;
74648;SDS011;63168;49.280;7.214;2023-01-13T10:17:38;3.95;;;1.35;;
74648;SDS011;63168;49.280;7.214;2023-01-13T10:20:11;3.65;;;1.48;;
74648;SDS011;63168;49.280;7.214;2023-01-13T10:22:44;3.88;;;1.40;;
74648;SDS011;63168;49.280;7.214;2023-01-13T10:25:18;4.72;;;1.40;;
74648;SDS011;63168;49.280;7.214;2023-01-13T10:27:48;4.40;;;1.63;;
74648;SDS011;63168;49.280;7.214;2023-01-13T10:30:19;4.47;;;1.30;;
74648;SDS011;63168;49.280;7.214;2023-01-13T10:32:49;2.42;;;1.15;;
74648;SDS011;63168;49.280;7.214;2023-01-13T10:35:20;2.67;;;1.25;;
74648;SDS011;63168;49.280;7.214;2023-01-13T10:38:13;4.82;;;1.30;;
74648;SDS011;63168;49.280;7.214;2023-01-13T10:40:45;3.58;;;1.20;;
74648;SDS011;63168;49.280;7.214;2023-01-13T10:43:11;3.38;;;1.08;;
74648;SDS011;63168;49.280;7.214;2023-01-13T10:45:38;3.73;;;1.30;;
74648;SDS011;63168;49.280;7.214;2023-01-13T10:48:05;4.25;;;1.30;;
74648;SDS011;63168;49.280;7.214;2023-01-13T10:50:35;4.30;;;1.33;;
74648;SDS011;63168;49.280;7.214;2023-01-13T10:53:02;3.63;;;1.30;;
74648;SDS011;63168;49.280;7.214;2023-01-13T10:55:42;3.85;;;1.42;;
74648;SDS011;63168;49.280;7.214;2023-01-13T10:58:11;2.92;;;1.27;;
74648;SDS011;63168;49.280;7.214;2023-01-13T11:00:41;3.70;;;1.25;;
74648;SDS011;63168;49.280;7.214;2023-01-13T11:03:13;4.45;;;1.10;;
74648;SDS011;63168;49.280;7.214;2023-01-13T11:05:46;4.10;;;1.40;;
74648;SDS011;63168;49.280;7.214;2023-01-13T11:08:14;4.65;;;1.30;;
74648;SDS011;63168;49.280;7.214;2023-01-13T11:10:43;2.88;;;1.10;;
74648;SDS011;63168;49.280;7.214;2023-01-13T11:13:12;4.28;;;1.42;;
74648;SDS011;63168;49.280;7.214;2023-01-13T11:15:42;3.20;;;1.38;;
74648;SDS011;63168;49.280;7.214;2023-01-13T11:18:13;3.97;;;1.13;;
74648;SDS011;63168;49.280;7.214;2023-01-13T11:20:46;3.55;;;1.20;;
74648;SDS011;63168;49.280;7.214;2023-01-13T11:23:16;3.70;;;1.13;;
74648;SDS011;63168;49.280;7.214;2023-01-13T11:25:47;2.55;;;1.10;;
74648;SDS011;63168;49.280;7.214;2023-01-13T11:28:24;3.47;;;1.20;;
74648;SDS011;63168;49.280;7.214;2023-01-13T11:31:03;3.90;;;1.77;;
74648;SDS011;63168;49.280;7.214;2023-01-13T11:33:35;6.15;;;1.15;;
74648;SDS011;63168;49.280;7.214;2023-01-13T11:36:07;3.35;;;1.15;;
74648;SDS011;63168;49.280;7.214;2023-01-13T11:38:39;3.75;;;1.30;;
74648;SDS011;63168;49.280;7.214;2023-01-13T11:41:12;2.70;;;1.10;;
74648;SDS011;63168;49.280;7.214;2023-01-13T11:43:45;4.28;;;1.40;;
74648;SDS011;63168;49.280;7.214;2023-01-13T11:46:16;2.33;;;1.00;;
74648;SDS011;63168;49.280;7.214;2023-01-13T11:48:42;2.78;;;1.10;;
74648;SDS011;63168;49.280;7.214;2023-01-13T11:51:10;4.75;;;1.58;;
74648;SDS011;63168;49.280;7.214;2023-01-13T11:53:49;2.90;;;1.10;;
74648;SDS011;63168;49.280;7.214;2023-01-13T11:56:31;4.30;;;1.30;;
74648;SDS011;63168;49.280;7.214;2023-01-13T11:59:16;3.47;;;1.00;;
74648;SDS011;63168;49.280;7.214;2023-01-13T12:02:01;3.40;;;1.13;;
74648;SDS011;63168;49.280;7.214;2023-01-13T12:04:39;3.47;;;1.00;;
74648;SDS011;63168;49.280;7.214;2023-01-13T12:07:13;3.00;;;1.13;;
74648;SDS011;63168;49.280;7.214;2023-01-13T12:09:47;3.25;;;1.10;;
74648;SDS011;63168;49.280;7.214;2023-01-13T12:12:24;3.75;;;1.20;;
74648;SDS011;63168;49.280;7.214;2023-01-13T12:15:03;2.40;;;0.80;;
74648;SDS011;63168;49.280;7.214;2023-01-13T12:17:45;2.70;;;0.80;;
74648;SDS011;63168;49.280;7.214;2023-01-13T12:20:20;2.47;;;0.90;;
74648;SDS011;63168;49.280;7.214;2023-01-13T12:22:54;3.63;;;0.97;;
74648;SDS011;63168;49.280;7.214;2023-01-13T12:25:26;3.10;;;1.00;;
74648;SDS011;63168;49.280;7.214;2023-01-13T12:27:57;4.10;;;1.45;;
74648;SDS011;63168;49.280;7.214;2023-01-13T12:30:39;2.38;;;0.70;;
74648;SDS011;63168;49.280;7.214;2023-01-13T12:33:11;3.20;;;1.17;;
74648;SDS011;63168;49.280;7.214;2023-01-13T12:35:45;3.30;;;1.30;;
74648;SDS011;63168;49.280;7.214;2023-01-13T12:38:19;2.92;;;1.10;;
74648;SDS011;63168;49.280;7.214;2023-01-13T12:40:52;4.90;;;1.17;;
74648;SDS011;63168;49.280;7.214;2023-01-13T12:43:25;2.83;;;0.90;;
74648;SDS011;63168;49.280;7.214;2023-01-13T12:49:17;2.77;;;1.20;;
74648;SDS011;63168;49.280;7.214;2023-01-13T12:55:06;2.47;;;1.00;;
74648;SDS011;63168;49.280;7.214;2023-01-13T12:57:37;3.15;;;1.30;;
74648;SDS011;63168;49.280;7.214;2023-01-13T13:00:13;3.13;;;0.98;;
74648;SDS011;63168;49.280;7.214;2023-01-13T13:02:40;2.88;;;0.90;;
74648;SDS011;63168;49.280;7.214;2023-01-13T13:08:04;2.42;;;0.80;;
74648;SDS011;63168;49.280;7.214;2023-01-13T13:10:36;2.90;;;1.00;;
74648;SDS011;63168;49.280;7.214;2023-01-13T13:13:05;3.60;;;0.93;;
74648;SDS011;63168;49.280;7.214;2023-01-13T13:15:45;2.28;;;0.90;;
74648;SDS011;63168;49.280;7.214;2023-01-13T13:18:19;3.15;;;1.10;;
74648;SDS011;63168;49.280;7.214;2023-01-13T13:20:57;3.07;;;1.00;;
74648;SDS011;63168;49.280;7.214;2023-01-13T13:23:26;2.35;;;1.00;;
74648;SDS011;63168;49.280;7.214;2023-01-13T13:26:17;2.15;;;1.05;;
74648;SDS011;63168;49.280;7.214;2023-01-13T13:29:06;3.15;;;1.00;;
74648;SDS011;63168;49.280;7.214;2023-01-13T13:31:56;2.60;;;1.00;;
74648;SDS011;63168;49.280;7.214;2023-01-13T13:34:32;2.30;;;0.87;;
74648;SDS011;63168;49.280;7.214;2023-01-13T13:37:15;2.70;;;1.10;;
74648;SDS011;63168;49.280;7.214;2023-01-13T13:39:52;3.22;;;0.90;;
74648;SDS011;63168;49.280;7.214;2023-01-13T13:42:39;3.73;;;0.97;;
74648;SDS011;63168;49.280;7.214;2023-01-13T13:45:26;2.45;;;1.00;;
74648;SDS011;63168;49.280;7.214;2023-01-13T13:48:17;3.72;;;1.05;;
74648;SDS011;63168;49.280;7.214;2023-01-13T13:50:45;2.75;;;1.10;;
74648;SDS011;63168;49.280;7.214;2023-01-13T13:53:12;2.53;;;1.05;;
74648;SDS011;63168;49.280;7.214;2023-01-13T13:55:38;3.33;;;1.08;;
74648;SDS011;63168;49.280;7.214;2023-01-13T13:58:03;3.30;;;1.00;;
74648;SDS011;63168;49.280;7.214;2023-01-13T14:00:41;2.08;;;0.82;;
74648;SDS011;63168;49.280;7.214;2023-01-13T14:03:17;2.60;;;0.90;;
74648;SDS011;63168;49.280;7.214;2023-01-13T14:05:51;4.05;;;1.30;;
74648;SDS011;63168;49.280;7.214;2023-01-13T14:08:19;2.90;;;0.90;;
74648;SDS011;63168;49.280;7.214;2023-01-13T14:10:45;3.08;;;0.90;;
74648;SDS011;63168;49.280;7.214;2023-01-13T14:13:16;3.13;;;0.90;;
74648;SDS011;63168;49.280;7.214;2023-01-13T14:15:44;2.17;;;0.85;;
74648;SDS011;63168;49.280;7.214;2023-01-13T14:18:12;2.10;;;0.60;;
74648;SDS011;63168;49.280;7.214;2023-01-13T14:20:39;2.42;;;0.70;;
74648;SDS011;63168;49.280;7.214;2023-01-13T14:23:12;2.55;;;1.00;;
74648;SDS011;63168;49.280;7.214;2023-01-13T14:25:45;2.75;;;0.85;;
74648;SDS011;63168;49.280;7.214;2023-01-13T14:28:17;2.47;;;1.00;;
74648;SDS011;63168;49.280;7.214;2023-01-13T14:30:46;2.08;;;0.80;;
74648;SDS011;63168;49.280;7.214;2023-01-13T14:33:14;2.17;;;0.70;;
74648;SDS011;63168;49.280;7.214;2023-01-13T14:38:34;2.15;;;0.80;;
74648;SDS011;63168;49.280;7.214;2023-01-13T14:41:09;3.05;;;0.90;;
74648;SDS011;63168;49.280;7.214;2023-01-13T14:43:41;2.20;;;0.73;;
74648;SDS011;63168;49.280;7.214;2023-01-13T14:46:07;2.90;;;1.08;;
74648;SDS011;63168;49.280;7.214;2023-01-13T14:48:33;2.33;;;0.90;;
74648;SDS011;63168;49.280;7.214;2023-01-13T14:51:00;2.35;;;0.80;;
74648;SDS011;63168;49.280;7.214;2023-01-13T14:53:33;2.33;;;0.90;;
74648;SDS011;63168;49.280;7.214;2023-01-13T15:11:01;4.30;;;1.30;;
74648;SDS011;63168;49.280;7.214;2023-01-13T15:13:29;6.15;;;1.83;;
74648;SDS011;63168;49.280;7.214;2023-01-13T15:16:02;3.30;;;1.27;;
74648;SDS011;63168;49.280;7.214;2023-01-13T15:18:29;5.60;;;1.40;;
74648;SDS011;63168;49.280;7.214;2023-01-13T15:20:54;5.03;;;1.37;;
74648;SDS011;63168;49.280;7.214;2023-01-13T15:23:20;4.95;;;1.50;;
74648;SDS011;63168;49.280;7.214;2023-01-13T15:25:46;5.67;;;1.50;;
74648;SDS011;63168;49.280;7.214;2023-01-13T15:28:13;4.20;;;1.05;;
74648;SDS011;63168;49.280;7.214;2023-01-13T15:30:41;4.20;;;1.60;;
74648;SDS011;63168;49.280;7.214;2023-01-13T15:33:08;4.20;;;1.50;;
74648;SDS011;63168;49.280;7.214;2023-01-13T15:35:36;3.72;;;1.27;;
74648;SDS011;63168;49.280;7.214;2023-01-13T15:38:08;3.08;;;1.40;;
74648;SDS011;63168;49.280;7.214;2023-01-13T15:40:35;4.57;;;1.30;;